Time;durP1;ratioP1;P1;durP2;ratioP2;P2;SDS_P1;SDS_P2;PMS_P1;PMS_P2;Temp;Humidity;BMP_temperature;BMP_pressure;BME280_temperature;BME280_humidity;BME280_pressure;Samples;Min_cycle;Max_cycle;Signal;HPM_P1;HPM_P2
2021/05/22 00:00:34;;;;;;;16.58;2.90;;;;;;;;;;5015403;28;20057;-78
2021/05/22 00:02:59;;;;;;;15.45;3.55;;;;;;;;;;5032598;28;20027;-78
2021/05/22 00:05:24;;;;;;;20.17;2.92;;;;;;;;;;5033864;28;20073;-78
2021/05/22 00:07:49;;;;;;;17.85;2.72;;;;;;;;;;5032663;28;20032;-78
2021/05/22 00:10:15;;;;;;;16.30;2.80;;;;;;;;;;5033299;28;20434;-78
2021/05/22 00:12:42;;;;;;;22.80;3.45;;;;;;;;;;5032544;28;20033;-78
2021/05/22 00:15:08;;;;;;;12.15;2.30;;;;;;;;;;5033229;28;20057;-78
2021/05/22 00:17:33;;;;;;;11.23;2.70;;;;;;;;;;5031922;28;20401;-78
2021/05/22 00:19:59;;;;;;;18.90;2.83;;;;;;;;;;5032853;28;20009;-78
2021/05/22 00:22:25;;;;;;;13.02;2.15;;;;;;;;;;5032256;28;20028;-78
2021/05/22 00:24:50;;;;;;;17.98;2.88;;;;;;;;;;5031923;28;20013;-79
2021/05/22 00:27:15;;;;;;;17.98;3.00;;;;;;;;;;5034180;28;20056;-78
2021/05/22 00:29:41;;;;;;;12.18;2.70;;;;;;;;;;5031428;28;20021;-78
2021/05/22 00:32:06;;;;;;;18.95;2.97;;;;;;;;;;5032296;28;20464;-79
2021/05/22 00:34:31;;;;;;;13.98;2.83;;;;;;;;;;5033533;28;20029;-78
2021/05/22 00:36:56;;;;;;;14.18;2.95;;;;;;;;;;5031622;28;20402;-78
2021/05/22 00:39:22;;;;;;;17.30;3.33;;;;;;;;;;5057800;28;20100;-78
2021/05/22 00:41:47;;;;;;;19.90;3.13;;;;;;;;;;5016440;28;20025;-78
2021/05/22 00:44:12;;;;;;;16.35;3.25;;;;;;;;;;5014950;28;20034;-78
2021/05/22 00:46:37;;;;;;;15.77;3.25;;;;;;;;;;5031747;28;20021;-78
2021/05/22 00:49:03;;;;;;;22.92;3.20;;;;;;;;;;5033263;28;20036;-78
2021/05/22 00:51:28;;;;;;;16.20;2.53;;;;;;;;;;5030251;28;20017;-78
2021/05/22 00:53:53;;;;;;;14.50;2.45;;;;;;;;;;5033628;28;20021;-78
2021/05/22 00:56:18;;;;;;;14.70;3.25;;;;;;;;;;5032377;28;20116;-78
2021/05/22 00:58:44;;;;;;;16.60;3.03;;;;;;;;;;5032830;28;20013;-78
2021/05/22 01:01:09;;;;;;;17.50;3.35;;;;;;;;;;5034995;28;20005;-78
2021/05/22 01:03:39;;;;;;;14.50;2.75;;;;;;;;;;5036381;28;20018;-78
2021/05/22 01:06:14;;;;;;;13.05;2.75;;;;;;;;;;5034868;28;20377;-78
2021/05/22 01:08:42;;;;;;;12.93;2.63;;;;;;;;;;5054963;28;20020;-79
2021/05/22 01:11:12;;;;;;;13.25;2.50;;;;;;;;;;5040131;28;20047;-78
2021/05/22 01:13:38;;;;;;;15.38;2.80;;;;;;;;;;5039197;28;20428;-78
2021/05/22 01:16:04;;;;;;;12.93;2.10;;;;;;;;;;5035506;28;20107;-79
2021/05/22 01:18:31;;;;;;;15.20;2.83;;;;;;;;;;5016119;28;20030;-78
2021/05/22 01:21:01;;;;;;;10.10;2.40;;;;;;;;;;5033023;28;20041;-78
2021/05/22 01:23:37;;;;;;;12.48;2.47;;;;;;;;;;5036213;28;20100;-78
2021/05/22 01:26:03;;;;;;;17.13;2.40;;;;;;;;;;5035496;28;20455;-78
2021/05/22 01:28:28;;;;;;;12.98;2.22;;;;;;;;;;5019183;28;20072;-78
2021/05/22 01:30:55;;;;;;;7.97;1.85;;;;;;;;;;5033985;28;20075;-78
2021/05/22 01:33:22;;;;;;;11.75;2.28;;;;;;;;;;5037214;28;20018;-78
2021/05/22 01:35:48;;;;;;;11.93;2.13;;;;;;;;;;5034777;28;20041;-78
2021/05/22 01:38:13;;;;;;;15.27;2.40;;;;;;;;;;5035412;28;20124;-78
2021/05/22 01:40:39;;;;;;;12.70;2.15;;;;;;;;;;5036650;28;20032;-78
2021/05/22 01:43:05;;;;;;;12.57;2.15;;;;;;;;;;5034683;28;20490;-78
2021/05/22 01:45:32;;;;;;;12.50;2.22;;;;;;;;;;5035900;28;20037;-78
2021/05/22 01:47:58;;;;;;;12.05;2.30;;;;;;;;;;5034429;28;20436;-78
2021/05/22 01:50:24;;;;;;;10.18;2.10;;;;;;;;;;5037189;28;20083;-78
2021/05/22 01:52:51;;;;;;;17.00;3.33;;;;;;;;;;5035530;28;20464;-78
2021/05/22 01:55:17;;;;;;;10.75;2.20;;;;;;;;;;5035084;28;20078;-78
2021/05/22 01:57:42;;;;;;;16.50;2.70;;;;;;;;;;5036320;28;20487;-78
2021/05/22 02:00:08;;;;;;;14.73;3.00;;;;;;;;;;5035730;28;20084;-78
2021/05/22 02:02:34;;;;;;;12.75;2.10;;;;;;;;;;5035194;28;20104;-79
2021/05/22 02:05:04;;;;;;;14.95;2.90;;;;;;;;;;5035953;28;20072;-79
2021/05/22 02:07:30;;;;;;;18.60;2.88;;;;;;;;;;5034154;28;20022;-79
2021/05/22 02:09:56;;;;;;;19.50;2.88;;;;;;;;;;5035869;28;20017;-79
2021/05/22 02:12:22;;;;;;;14.40;2.80;;;;;;;;;;5033023;28;20021;-79
2021/05/22 02:14:49;;;;;;;14.85;2.88;;;;;;;;;;5036485;28;20037;-79
2021/05/22 02:17:15;;;;;;;18.38;2.58;;;;;;;;;;5034312;28;20498;-79
2021/05/22 02:19:43;;;;;;;17.90;2.50;;;;;;;;;;5036061;28;20029;-79
2021/05/22 02:22:09;;;;;;;15.57;2.10;;;;;;;;;;5034867;28;20355;-79
2021/05/22 02:24:35;;;;;;;16.23;2.67;;;;;;;;;;5034855;28;20027;-79
2021/05/22 02:27:01;;;;;;;17.42;2.38;;;;;;;;;;5035552;28;20401;-79
2021/05/22 02:29:27;;;;;;;13.18;2.10;;;;;;;;;;5034360;28;20052;-79
2021/05/22 02:31:52;;;;;;;13.98;2.22;;;;;;;;;;5036396;28;20013;-79
2021/05/22 02:34:22;;;;;;;15.02;2.30;;;;;;;;;;5033218;28;20105;-79
2021/05/22 02:36:49;;;;;;;12.00;2.38;;;;;;;;;;5034612;28;20017;-79
2021/05/22 02:39:15;;;;;;;16.05;2.25;;;;;;;;;;5034334;28;20072;-79
2021/05/22 02:41:42;;;;;;;12.40;2.22;;;;;;;;;;5035407;28;20033;-79
2021/05/22 02:44:08;;;;;;;13.05;2.83;;;;;;;;;;5033573;28;20033;-79
2021/05/22 02:46:39;;;;;;;11.90;2.08;;;;;;;;;;5034262;28;20451;-79
2021/05/22 02:49:05;;;;;;;13.95;2.10;;;;;;;;;;5034014;28;20439;-79
2021/05/22 02:51:31;;;;;;;15.13;2.50;;;;;;;;;;5033589;28;20435;-79
2021/05/22 02:53:59;;;;;;;13.00;2.13;;;;;;;;;;5035910;28;20409;-79
2021/05/22 02:56:25;;;;;;;15.32;2.38;;;;;;;;;;5033119;28;20040;-79
2021/05/22 02:58:50;;;;;;;15.73;2.30;;;;;;;;;;5034062;28;20411;-79
2021/05/22 03:01:16;;;;;;;12.90;2.35;;;;;;;;;;5034528;28;20021;-79
2021/05/22 03:03:43;;;;;;;14.75;2.50;;;;;;;;;;5034986;28;20063;-79
2021/05/22 03:06:08;;;;;;;15.10;2.05;;;;;;;;;;5033083;28;20384;-79
2021/05/22 03:08:46;;;;;;;13.00;2.47;;;;;;;;;;5035201;28;20040;-79
2021/05/22 03:11:12;;;;;;;14.38;2.65;;;;;;;;;;5033505;28;20029;-79
2021/05/22 03:13:38;;;;;;;16.67;2.80;;;;;;;;;;5034141;28;20017;-79
2021/05/22 03:16:03;;;;;;;16.90;3.00;;;;;;;;;;5034683;28;20545;-79
2021/05/22 03:18:28;;;;;;;18.63;3.15;;;;;;;;;;5034900;28;20037;-79
2021/05/22 03:20:54;;;;;;;13.63;2.30;;;;;;;;;;5032782;28;20057;-79
2021/05/22 03:23:20;;;;;;;19.55;2.60;;;;;;;;;;5033009;28;20412;-79
2021/05/22 03:25:45;;;;;;;16.67;2.88;;;;;;;;;;5034298;28;20044;-79
2021/05/22 03:28:10;;;;;;;22.65;2.75;;;;;;;;;;5032887;28;20116;-79
2021/05/22 03:30:36;;;;;;;14.70;2.63;;;;;;;;;;5032557;28;20467;-79
2021/05/22 03:33:01;;;;;;;15.15;2.92;;;;;;;;;;5034073;28;20044;-79
2021/05/22 03:35:26;;;;;;;19.42;3.10;;;;;;;;;;5031054;28;20175;-79
2021/05/22 03:37:52;;;;;;;15.05;2.58;;;;;;;;;;5032138;28;20018;-79
2021/05/22 03:40:17;;;;;;;24.80;3.28;;;;;;;;;;5034529;28;20080;-79
2021/05/22 03:42:42;;;;;;;30.00;3.67;;;;;;;;;;5014890;28;20021;-79
2021/05/22 03:45:08;;;;;;;19.33;2.80;;;;;;;;;;5034658;28;20057;-78
2021/05/22 03:47:33;;;;;;;21.60;3.05;;;;;;;;;;5033737;28;20029;-78
2021/05/22 03:49:59;;;;;;;22.50;3.15;;;;;;;;;;5048591;28;20022;-79
2021/05/22 03:52:24;;;;;;;21.33;3.25;;;;;;;;;;5038819;28;20021;-79
2021/05/22 03:54:49;;;;;;;28.33;3.58;;;;;;;;;;5042295;28;20374;-78
2021/05/22 03:57:14;;;;;;;18.30;3.25;;;;;;;;;;5021323;28;20075;-79
2021/05/22 03:59:40;;;;;;;24.05;3.42;;;;;;;;;;5018242;28;20188;-79
2021/05/22 04:02:05;;;;;;;21.52;3.47;;;;;;;;;;5033651;28;20094;-79
2021/05/22 04:04:30;;;;;;;24.60;3.10;;;;;;;;;;5016869;28;20096;-78
2021/05/22 04:06:55;;;;;;;23.08;3.17;;;;;;;;;;5032295;28;20096;-79
2021/05/22 04:09:21;;;;;;;18.80;3.10;;;;;;;;;;5033435;28;20041;-79
2021/05/22 04:11:46;;;;;;;21.70;2.90;;;;;;;;;;5032248;28;20344;-79
2021/05/22 04:14:12;;;;;;;20.30;2.47;;;;;;;;;;5034341;28;20056;-78
2021/05/22 04:16:37;;;;;;;17.90;2.67;;;;;;;;;;5031634;28;20053;-78
2021/05/22 04:19:03;;;;;;;21.80;3.10;;;;;;;;;;5033514;28;20047;-78
2021/05/22 04:21:29;;;;;;;24.95;2.72;;;;;;;;;;5033321;28;20032;-79
2021/05/22 04:23:54;;;;;;;18.20;2.72;;;;;;;;;;5032714;28;20428;-79
2021/05/22 04:26:20;;;;;;;21.42;2.60;;;;;;;;;;5033533;28;20044;-79
2021/05/22 04:28:46;;;;;;;21.70;2.72;;;;;;;;;;5030158;28;20059;-79
2021/05/22 04:31:11;;;;;;;20.42;2.80;;;;;;;;;;5033013;28;20021;-78
2021/05/22 04:33:36;;;;;;;19.13;2.60;;;;;;;;;;5032969;28;20036;-78
2021/05/22 04:36:02;;;;;;;17.13;2.67;;;;;;;;;;5032516;28;20360;-79
2021/05/22 04:38:27;;;;;;;23.98;3.00;;;;;;;;;;5033365;28;20067;-79
2021/05/22 04:40:52;;;;;;;18.80;2.83;;;;;;;;;;5032671;28;20105;-79
2021/05/22 04:43:18;;;;;;;19.25;3.13;;;;;;;;;;5032793;28;20418;-79
2021/05/22 04:45:43;;;;;;;22.67;2.88;;;;;;;;;;5031898;28;20017;-78
2021/05/22 04:48:08;;;;;;;20.23;3.17;;;;;;;;;;5015731;28;20040;-78
2021/05/22 04:50:34;;;;;;;18.10;2.85;;;;;;;;;;5030120;28;20034;-78
2021/05/22 04:53:00;;;;;;;19.50;3.47;;;;;;;;;;5031645;28;20025;-78
2021/05/22 04:55:25;;;;;;;23.42;2.75;;;;;;;;;;5032387;28;20435;-78
2021/05/22 04:57:50;;;;;;;21.40;2.65;;;;;;;;;;5031405;28;20053;-79
2021/05/22 05:00:16;;;;;;;20.08;2.70;;;;;;;;;;5047620;28;20040;-78
2021/05/22 05:02:41;;;;;;;20.73;2.92;;;;;;;;;;5031668;28;20355;-77
2021/05/22 05:05:07;;;;;;;18.75;2.70;;;;;;;;;;5033453;28;20042;-78
2021/05/22 05:07:32;;;;;;;20.52;2.70;;;;;;;;;;5030900;28;20487;-78
2021/05/22 05:09:57;;;;;;;17.60;3.35;;;;;;;;;;5031822;28;20022;-78
2021/05/22 05:12:22;;;;;;;18.88;2.92;;;;;;;;;;5031678;28;20021;-79
2021/05/22 05:14:48;;;;;;;20.73;3.28;;;;;;;;;;5015406;28;20436;-78
2021/05/22 05:17:13;;;;;;;18.67;3.33;;;;;;;;;;5030958;28;20037;-78
2021/05/22 05:19:38;;;;;;;14.38;2.70;;;;;;;;;;5032156;28;20026;-79
2021/05/22 05:22:04;;;;;;;18.60;3.00;;;;;;;;;;5031668;28;20036;-79
2021/05/22 05:24:29;;;;;;;14.35;2.60;;;;;;;;;;5032236;28;20108;-79
2021/05/22 05:26:54;;;;;;;17.92;2.75;;;;;;;;;;5031249;28;20037;-78
2021/05/22 05:29:20;;;;;;;14.02;3.40;;;;;;;;;;5033348;28;20029;-78
2021/05/22 05:31:45;;;;;;;19.77;2.88;;;;;;;;;;5030622;28;20022;-79
2021/05/22 05:34:10;;;;;;;17.23;2.72;;;;;;;;;;5032095;28;20129;-78
2021/05/22 05:36:36;;;;;;;16.30;2.65;;;;;;;;;;5032116;28;20507;-78
2021/05/22 05:39:02;;;;;;;21.77;2.72;;;;;;;;;;5031425;28;20032;-78
2021/05/22 05:41:28;;;;;;;18.60;2.90;;;;;;;;;;5032087;28;20108;-78
2021/05/22 05:43:53;;;;;;;12.73;2.40;;;;;;;;;;5033406;28;20658;-77
2021/05/22 05:46:18;;;;;;;20.13;2.88;;;;;;;;;;5030253;28;20029;-78
2021/05/22 05:48:43;;;;;;;12.30;2.70;;;;;;;;;;5033966;28;20088;-78
2021/05/22 05:51:09;;;;;;;12.00;2.20;;;;;;;;;;5034348;28;20018;-78
2021/05/22 05:53:35;;;;;;;19.20;3.28;;;;;;;;;;5034187;28;20060;-78
2021/05/22 05:56:00;;;;;;;12.02;2.55;;;;;;;;;;5038501;28;20018;-77
2021/05/22 05:58:26;;;;;;;17.55;2.50;;;;;;;;;;5036443;28;20025;-78
2021/05/22 06:00:51;;;;;;;15.18;3.33;;;;;;;;;;5034789;28;20060;-78
2021/05/22 06:03:30;;;;;;;16.33;2.42;;;;;;;;;;5023346;28;20455;-78
2021/05/22 06:05:55;;;;;;;13.63;2.50;;;;;;;;;;5035245;28;20021;-78
2021/05/22 06:08:21;;;;;;;10.65;2.40;;;;;;;;;;5040061;28;20120;-78
2021/05/22 06:10:48;;;;;;;14.98;2.53;;;;;;;;;;5017543;28;20095;-78
2021/05/22 06:13:30;;;;;;;18.27;2.55;;;;;;;;;;5033401;28;20045;-78
2021/05/22 06:18:28;;;;;;;14.77;2.90;;;;;;;;;;5038191;28;20057;-81
2021/05/22 06:20:54;;;;;;;17.00;2.92;;;;;;;;;;5037294;28;20040;-79
2021/05/22 06:23:19;;;;;;;14.20;3.10;;;;;;;;;;5034281;28;20566;-79
2021/05/22 06:25:45;;;;;;;13.05;2.70;;;;;;;;;;5036510;28;20034;-79
2021/05/22 06:28:10;;;;;;;12.98;2.50;;;;;;;;;;5035238;28;20061;-79
2021/05/22 06:30:35;;;;;;;16.92;2.67;;;;;;;;;;5035111;28;20041;-79
2021/05/22 06:33:00;;;;;;;18.50;3.00;;;;;;;;;;5035659;28;20379;-79
2021/05/22 06:35:25;;;;;;;18.20;3.38;;;;;;;;;;5019034;28;20022;-78
2021/05/22 06:37:51;;;;;;;9.00;2.40;;;;;;;;;;5017705;28;20030;-80
2021/05/22 06:40:16;;;;;;;9.70;2.00;;;;;;;;;;5034645;28;20057;-77
2021/05/22 06:42:41;;;;;;;13.70;2.35;;;;;;;;;;5034798;28;20013;-78
2021/05/22 06:45:10;;;;;;;9.80;2.38;;;;;;;;;;5035797;28;20033;-79
2021/05/22 06:47:35;;;;;;;12.55;2.53;;;;;;;;;;5034424;28;20033;-78
2021/05/22 06:50:01;;;;;;;10.73;2.28;;;;;;;;;;5008996;28;20404;-77
2021/05/22 06:52:26;;;;;;;10.73;1.98;;;;;;;;;;5034122;28;20021;-78
2021/05/22 06:54:51;;;;;;;12.02;2.38;;;;;;;;;;5034936;28;20080;-77
2021/05/22 06:57:17;;;;;;;12.73;2.05;;;;;;;;;;5033548;28;20099;-79
2021/05/22 06:59:42;;;;;;;11.52;2.08;;;;;;;;;;5017466;28;20028;-79
2021/05/22 07:02:07;;;;;;;13.00;2.17;;;;;;;;;;5035272;28;20017;-77
2021/05/22 07:04:33;;;;;;;15.40;2.20;;;;;;;;;;5052628;28;20529;-79
2021/05/22 07:06:58;;;;;;;11.85;2.45;;;;;;;;;;5033448;28;20067;-77
2021/05/22 07:09:23;;;;;;;10.68;2.22;;;;;;;;;;5033586;28;20025;-79
2021/05/22 07:11:48;;;;;;;14.70;2.20;;;;;;;;;;5050588;28;20036;-78
2021/05/22 07:14:14;;;;;;;10.85;2.30;;;;;;;;;;5032954;28;20172;-80
2021/05/22 07:16:39;;;;;;;16.83;2.63;;;;;;;;;;5038150;28;20038;-79
2021/05/22 07:19:04;;;;;;;11.77;2.42;;;;;;;;;;5037682;28;20033;-80
2021/05/22 07:21:30;;;;;;;8.13;1.85;;;;;;;;;;5038840;28;20022;-80
2021/05/22 07:23:55;;;;;;;16.38;2.20;;;;;;;;;;5021744;28;20440;-79
2021/05/22 07:26:21;;;;;;;11.82;2.30;;;;;;;;;;5040638;28;20068;-79
2021/05/22 07:28:46;;;;;;;11.10;2.20;;;;;;;;;;5047944;28;20033;-81
2021/05/22 07:31:11;;;;;;;12.32;2.53;;;;;;;;;;5043525;28;20051;-80
2021/05/22 07:33:40;;;;;;;15.52;2.58;;;;;;;;;;5044540;28;20052;-80
2021/05/22 07:36:07;;;;;;;12.77;2.33;;;;;;;;;;5048787;28;20433;-80
2021/05/22 07:38:32;;;;;;;12.45;2.47;;;;;;;;;;5045489;28;20036;-80
2021/05/22 07:40:57;;;;;;;13.45;2.40;;;;;;;;;;5043518;28;20037;-82
2021/05/22 07:43:22;;;;;;;15.10;2.63;;;;;;;;;;5041333;28;20477;-80
2021/05/22 07:45:48;;;;;;;12.77;2.25;;;;;;;;;;5034367;28;20029;-80
2021/05/22 07:48:14;;;;;;;17.27;2.42;;;;;;;;;;5037813;28;20438;-80
2021/05/22 07:50:39;;;;;;;16.45;2.10;;;;;;;;;;5033977;28;20049;-80
2021/05/22 07:53:05;;;;;;;14.20;2.78;;;;;;;;;;5035891;28;20026;-79
2021/05/22 07:55:30;;;;;;;16.95;2.30;;;;;;;;;;5045850;28;20014;-82
2021/05/22 07:57:55;;;;;;;12.95;2.00;;;;;;;;;;5050408;28;20021;-81
2021/05/22 08:00:21;;;;;;;12.18;2.03;;;;;;;;;;5047499;28;20045;-78
2021/05/22 08:02:46;;;;;;;15.50;2.45;;;;;;;;;;5045421;28;20435;-81
2021/05/22 08:05:13;;;;;;;13.57;2.38;;;;;;;;;;5043963;28;20549;-80
2021/05/22 08:07:38;;;;;;;12.57;1.85;;;;;;;;;;5045966;28;20021;-80
2021/05/22 08:10:04;;;;;;;10.55;2.13;;;;;;;;;;5049267;28;20056;-81
2021/05/22 08:12:29;;;;;;;12.10;2.10;;;;;;;;;;5052076;28;20014;-80
2021/05/22 08:14:55;;;;;;;13.43;2.50;;;;;;;;;;5052133;28;20036;-81
2021/05/22 08:17:20;;;;;;;12.90;1.77;;;;;;;;;;5052273;28;20032;-81
2021/05/22 08:19:46;;;;;;;20.73;2.30;;;;;;;;;;5078352;28;20458;-81
2021/05/22 08:22:11;;;;;;;11.18;2.20;;;;;;;;;;5047329;28;20063;-81
2021/05/22 08:24:36;;;;;;;17.88;2.28;;;;;;;;;;5043151;28;20031;-80
2021/05/22 08:27:02;;;;;;;10.32;2.20;;;;;;;;;;5045436;28;20044;-79
2021/05/22 08:29:27;;;;;;;15.98;2.30;;;;;;;;;;5038586;28;20032;-79
2021/05/22 08:31:53;;;;;;;13.73;2.28;;;;;;;;;;5021987;28;20025;-80
2021/05/22 08:34:18;;;;;;;12.70;2.33;;;;;;;;;;5016047;28;20108;-79
2021/05/22 08:36:44;;;;;;;17.60;2.03;;;;;;;;;;5017510;28;20026;-79
2021/05/22 08:39:09;;;;;;;10.73;1.85;;;;;;;;;;5034728;28;20032;-79
2021/05/22 08:41:36;;;;;;;9.82;1.77;;;;;;;;;;5032733;28;20068;-79
2021/05/22 08:44:02;;;;;;;14.38;2.60;;;;;;;;;;5033468;28;20018;-79
2021/05/22 08:46:29;;;;;;;14.57;2.20;;;;;;;;;;5032002;28;20029;-79
2021/05/22 08:48:54;;;;;;;15.27;2.10;;;;;;;;;;5032935;28;20431;-79
2021/05/22 08:51:21;;;;;;;12.85;1.90;;;;;;;;;;5031944;28;20025;-79
2021/05/22 08:53:46;;;;;;;13.73;2.40;;;;;;;;;;5031431;28;20021;-79
2021/05/22 08:56:11;;;;;;;18.52;2.17;;;;;;;;;;5033762;28;20063;-80
2021/05/22 08:58:37;;;;;;;15.90;1.85;;;;;;;;;;5037313;28;20091;-80
2021/05/22 09:01:04;;;;;;;12.07;1.90;;;;;;;;;;5032494;28;20010;-80
2021/05/22 09:03:29;;;;;;;13.13;2.10;;;;;;;;;;5034464;28;20028;-80
2021/05/22 09:05:54;;;;;;;13.40;1.83;;;;;;;;;;5031672;28;20022;-79
2021/05/22 09:08:20;;;;;;;12.02;1.83;;;;;;;;;;5015277;28;20035;-80
2021/05/22 09:10:50;;;;;;;8.45;1.90;;;;;;;;;;5033485;28;20010;-80
2021/05/22 09:13:36;;;;;;;14.05;1.80;;;;;;;;;;5034365;28;20018;-79
2021/05/22 09:16:06;;;;;;;10.40;2.17;;;;;;;;;;5034715;28;20383;-79
2021/05/22 09:18:36;;;;;;;12.93;2.03;;;;;;;;;;5034957;28;20029;-80
2021/05/22 09:21:02;;;;;;;13.27;1.85;;;;;;;;;;5037005;28;20029;-80
2021/05/22 09:23:29;;;;;;;11.00;1.80;;;;;;;;;;5037512;28;20025;-80
2021/05/22 09:25:56;;;;;;;8.13;1.65;;;;;;;;;;5042875;28;20032;-80
2021/05/22 09:28:25;;;;;;;9.98;1.95;;;;;;;;;;5043952;28;20032;-80
2021/05/22 09:30:51;;;;;;;12.52;1.80;;;;;;;;;;5041595;28;20027;-80
2021/05/22 09:33:21;;;;;;;11.70;1.90;;;;;;;;;;5025868;28;20053;-80
2021/05/22 09:36:07;;;;;;;7.28;1.40;;;;;;;;;;5040131;28;20079;-79
2021/05/22 09:38:38;;;;;;;6.88;2.03;;;;;;;;;;5036732;28;20041;-79
2021/05/22 09:41:16;;;;;;;7.93;2.00;;;;;;;;;;5035998;28;20021;-79
2021/05/22 09:43:41;;;;;;;6.97;1.50;;;;;;;;;;5040548;28;20032;-80
2021/05/22 09:46:10;;;;;;;11.20;1.60;;;;;;;;;;5038430;28;20034;-79
2021/05/22 09:48:36;;;;;;;9.02;2.03;;;;;;;;;;5036719;28;20021;-81
2021/05/22 09:51:03;;;;;;;5.60;1.90;;;;;;;;;;5043638;28;20022;-80
2021/05/22 09:53:30;;;;;;;9.98;2.17;;;;;;;;;;5042251;28;20015;-79
2021/05/22 09:56:16;;;;;;;11.35;2.25;;;;;;;;;;5042456;28;20021;-79
2021/05/22 09:58:43;;;;;;;8.63;1.48;;;;;;;;;;5051639;28;20061;-80
2021/05/22 10:01:09;;;;;;;16.05;1.83;;;;;;;;;;5049923;28;20013;-81
2021/05/22 10:03:34;;;;;;;6.30;1.50;;;;;;;;;;5043374;28;20096;-81
2021/05/22 10:06:00;;;;;;;8.13;1.80;;;;;;;;;;5039680;28;20064;-79
2021/05/22 10:08:25;;;;;;;12.27;2.42;;;;;;;;;;5034108;28;20112;-79
2021/05/22 10:10:53;;;;;;;8.63;1.70;;;;;;;;;;5066684;28;20025;-78
2021/05/22 10:13:19;;;;;;;8.55;2.20;;;;;;;;;;5034486;28;20112;-79
2021/05/22 10:15:46;;;;;;;9.93;1.90;;;;;;;;;;5035577;28;20045;-79
2021/05/22 10:18:12;;;;;;;11.20;1.92;;;;;;;;;;5035425;28;20114;-78
2021/05/22 10:20:38;;;;;;;9.23;1.88;;;;;;;;;;5035424;28;20033;-80
2021/05/22 10:23:03;;;;;;;10.32;2.10;;;;;;;;;;5037221;28;20359;-81
2021/05/22 10:25:28;;;;;;;7.45;2.00;;;;;;;;;;5035558;28;20203;-78
2021/05/22 10:27:54;;;;;;;10.10;1.70;;;;;;;;;;5033768;28;20029;-78
2021/05/22 10:30:19;;;;;;;9.70;1.70;;;;;;;;;;5037195;28;20044;-79
2021/05/22 10:32:45;;;;;;;7.22;1.70;;;;;;;;;;5037219;28;20045;-80
2021/05/22 10:35:14;;;;;;;8.70;1.77;;;;;;;;;;5038537;28;20021;-80
2021/05/22 10:37:45;;;;;;;16.67;2.13;;;;;;;;;;5040905;28;20049;-80
2021/05/22 10:40:11;;;;;;;8.20;1.58;;;;;;;;;;5038208;28;20028;-80
2021/05/22 10:42:37;;;;;;;7.95;1.60;;;;;;;;;;5041000;28;20147;-79
2021/05/22 10:45:21;;;;;;;13.53;1.87;;;;;;;;;;5036424;28;20041;-79
2021/05/22 10:47:46;;;;;;;9.98;1.83;;;;;;;;;;5033672;28;20281;-79
2021/05/22 10:50:11;;;;;;;8.57;1.95;;;;;;;;;;5039371;28;20443;-79
2021/05/22 10:52:37;;;;;;;10.75;1.98;;;;;;;;;;5019499;28;20022;-79
2021/05/22 10:55:05;;;;;;;8.85;1.60;;;;;;;;;;5033933;28;20347;-79
2021/05/22 10:57:34;;;;;;;6.82;1.50;;;;;;;;;;5036224;28;20018;-79
2021/05/22 11:00:15;;;;;;;9.63;2.05;;;;;;;;;;5036213;28;20044;-80
2021/05/22 11:02:42;;;;;;;7.35;2.00;;;;;;;;;;5036837;28;20144;-79
2021/05/22 11:05:22;;;;;;;13.63;2.05;;;;;;;;;;5021065;28;20025;-78
2021/05/22 11:08:08;;;;;;;14.52;2.20;;;;;;;;;;5033335;28;20088;-79
2021/05/22 11:10:36;;;;;;;8.32;1.90;;;;;;;;;;5019508;28;20577;-79
2021/05/22 11:13:02;;;;;;;7.75;1.92;;;;;;;;;;5034479;28;20455;-78
2021/05/22 11:15:38;;;;;;;9.38;1.83;;;;;;;;;;5033927;28;20049;-80
2021/05/22 11:18:05;;;;;;;15.52;2.25;;;;;;;;;;5037337;28;20037;-79
2021/05/22 11:20:31;;;;;;;12.10;2.65;;;;;;;;;;5035110;28;20050;-79
2021/05/22 11:22:58;;;;;;;13.02;2.60;;;;;;;;;;5036933;28;20183;-81
2021/05/22 11:25:43;;;;;;;10.23;2.05;;;;;;;;;;5032896;28;20025;-78
2021/05/22 11:28:10;;;;;;;14.02;2.00;;;;;;;;;;5033502;28;20060;-79
2021/05/22 11:30:35;;;;;;;11.18;2.00;;;;;;;;;;5036899;28;20508;-78
2021/05/22 11:33:05;;;;;;;11.55;2.30;;;;;;;;;;5033517;28;20029;-78
2021/05/22 11:35:38;;;;;;;17.58;2.50;;;;;;;;;;5016965;28;20014;-81
2021/05/22 11:38:13;;;;;;;8.35;1.98;;;;;;;;;;5033968;28;20029;-79
2021/05/22 11:40:38;;;;;;;12.48;2.10;;;;;;;;;;5033847;28;20024;-79
2021/05/22 11:43:13;;;;;;;10.73;2.20;;;;;;;;;;5036126;28;20104;-79
2021/05/22 11:45:45;;;;;;;16.73;2.83;;;;;;;;;;5033669;28;20033;-79
2021/05/22 11:48:30;;;;;;;11.65;2.50;;;;;;;;;;5038272;28;20029;-80
2021/05/22 11:50:58;;;;;;;11.10;2.53;;;;;;;;;;5047220;28;20025;-80
2021/05/22 11:53:26;;;;;;;11.75;2.50;;;;;;;;;;5047968;28;20017;-81
2021/05/22 11:56:02;;;;;;;10.20;2.20;;;;;;;;;;5054456;28;20017;-81
2021/05/22 11:58:29;;;;;;;11.18;1.92;;;;;;;;;;5047410;28;20032;-81
2021/05/22 12:00:55;;;;;;;11.15;2.42;;;;;;;;;;5045281;28;20081;-80
2021/05/22 12:03:27;;;;;;;9.43;2.40;;;;;;;;;;5040679;28;20123;-81
2021/05/22 12:05:53;;;;;;;9.98;1.88;;;;;;;;;;5048822;28;20086;-81
2021/05/22 12:08:29;;;;;;;14.68;2.20;;;;;;;;;;5030024;28;20041;-81
2021/05/22 12:10:55;;;;;;;9.18;2.03;;;;;;;;;;5040950;28;20029;-79
2021/05/22 12:13:21;;;;;;;9.18;2.05;;;;;;;;;;5038482;28;20052;-80
2021/05/22 12:15:47;;;;;;;10.73;1.90;;;;;;;;;;5040734;28;20475;-79
2021/05/22 12:18:18;;;;;;;10.52;2.25;;;;;;;;;;5031736;28;20056;-79
2021/05/22 12:20:48;;;;;;;10.43;1.98;;;;;;;;;;5032859;28;20026;-79
2021/05/22 12:23:27;;;;;;;13.73;2.08;;;;;;;;;;5033608;28;20033;-79
2021/05/22 12:25:53;;;;;;;9.27;1.77;;;;;;;;;;5031388;28;20021;-79
2021/05/22 12:28:18;;;;;;;8.32;1.80;;;;;;;;;;5013273;28;20033;-81
2021/05/22 12:30:45;;;;;;;7.78;1.95;;;;;;;;;;5034168;28;20466;-79
2021/05/22 12:33:17;;;;;;;7.60;1.80;;;;;;;;;;5032301;28;20018;-79
2021/05/22 12:35:47;;;;;;;7.85;1.98;;;;;;;;;;5033675;28;20013;-79
2021/05/22 12:38:13;;;;;;;8.38;1.75;;;;;;;;;;5033622;28;20477;-79
2021/05/22 12:40:45;;;;;;;7.93;1.70;;;;;;;;;;5035207;28;20021;-80
2021/05/22 12:43:11;;;;;;;10.10;1.83;;;;;;;;;;5034818;28;20075;-80
2021/05/22 12:45:36;;;;;;;8.75;2.10;;;;;;;;;;5036246;28;20033;-79
2021/05/22 12:48:01;;;;;;;11.45;1.80;;;;;;;;;;5035773;28;20128;-78
2021/05/22 12:50:27;;;;;;;10.10;1.58;;;;;;;;;;5037617;28;20033;-80
2021/05/22 12:52:54;;;;;;;6.57;1.65;;;;;;;;;;5037644;28;20017;-80
2021/05/22 12:55:24;;;;;;;7.95;1.63;;;;;;;;;;5041108;28;20439;-80
2021/05/22 12:57:49;;;;;;;7.43;1.70;;;;;;;;;;5041292;28;20018;-81
2021/05/22 13:00:15;;;;;;;7.03;1.55;;;;;;;;;;5038971;28;20095;-80
2021/05/22 13:02:51;;;;;;;8.90;1.92;;;;;;;;;;5041398;28;20025;-80
2021/05/22 13:05:18;;;;;;;9.30;1.80;;;;;;;;;;5054109;28;20025;-79
2021/05/22 13:07:44;;;;;;;12.75;1.80;;;;;;;;;;5037556;28;20017;-80
2021/05/22 13:10:14;;;;;;;11.13;1.77;;;;;;;;;;5036310;28;20036;-80
2021/05/22 13:12:59;;;;;;;6.13;1.42;;;;;;;;;;5041524;28;20071;-81
2021/05/22 13:15:28;;;;;;;9.02;1.58;;;;;;;;;;5039773;28;20128;-80
2021/05/22 13:17:55;;;;;;;6.95;1.50;;;;;;;;;;5038163;28;20413;-79
2021/05/22 13:20:24;;;;;;;12.65;1.98;;;;;;;;;;5035687;28;20060;-80
2021/05/22 13:22:49;;;;;;;8.10;1.50;;;;;;;;;;5037033;28;20045;-80
2021/05/22 13:25:19;;;;;;;8.02;1.92;;;;;;;;;;5037726;28;20040;-80
2021/05/22 13:28:04;;;;;;;8.23;1.60;;;;;;;;;;5037870;28;20036;-79
2021/05/22 13:30:40;;;;;;;9.13;1.50;;;;;;;;;;5033920;28;20072;-80
2021/05/22 13:33:06;;;;;;;8.02;2.00;;;;;;;;;;5037987;28;20028;-80
2021/05/22 13:35:31;;;;;;;10.40;1.67;;;;;;;;;;5039756;28;20026;-81
2021/05/22 13:37:58;;;;;;;7.72;1.58;;;;;;;;;;5042154;28;20355;-81
2021/05/22 13:40:28;;;;;;;8.40;1.60;;;;;;;;;;5041968;28;20037;-81
2021/05/22 13:42:53;;;;;;;8.82;1.73;;;;;;;;;;5033489;28;20100;-80
2021/05/22 13:45:18;;;;;;;5.55;1.48;;;;;;;;;;5040560;28;20049;-80
2021/05/22 13:47:44;;;;;;;7.57;1.50;;;;;;;;;;5037083;28;20026;-81
2021/05/22 13:50:09;;;;;;;10.13;2.00;;;;;;;;;;5042393;28;20032;-80
2021/05/22 13:52:35;;;;;;;8.90;1.60;;;;;;;;;;5040926;28;20018;-80
2021/05/22 13:55:00;;;;;;;7.28;1.70;;;;;;;;;;5038095;28;20029;-79
2021/05/22 13:57:25;;;;;;;8.75;1.65;;;;;;;;;;5034205;28;20091;-80
2021/05/22 13:59:51;;;;;;;8.88;2.03;;;;;;;;;;5032943;28;20359;-79
2021/05/22 14:02:17;;;;;;;7.75;1.60;;;;;;;;;;5034551;28;20078;-79
2021/05/22 14:04:42;;;;;;;11.13;1.90;;;;;;;;;;5034286;28;20021;-81
2021/05/22 14:07:07;;;;;;;10.07;1.77;;;;;;;;;;5038395;28;20017;-80
2021/05/22 14:09:33;;;;;;;10.85;2.15;;;;;;;;;;5024730;28;20028;-80
2021/05/22 14:11:58;;;;;;;7.75;1.90;;;;;;;;;;5037765;28;20435;-80
2021/05/22 14:14:23;;;;;;;6.25;1.40;;;;;;;;;;5037206;28;20022;-80
2021/05/22 14:16:49;;;;;;;6.15;1.40;;;;;;;;;;5036208;28;20053;-80
2021/05/22 14:19:15;;;;;;;9.77;2.13;;;;;;;;;;5036574;28;20028;-80
2021/05/22 14:21:40;;;;;;;7.25;1.63;;;;;;;;;;5022618;28;20052;-80
2021/05/22 14:24:05;;;;;;;6.57;1.80;;;;;;;;;;5039021;28;20435;-80
2021/05/22 14:26:30;;;;;;;12.38;1.70;;;;;;;;;;5035307;28;20116;-80
2021/05/22 14:28:56;;;;;;;7.85;1.52;;;;;;;;;;5046488;28;20044;-80
2021/05/22 14:31:21;;;;;;;7.97;1.70;;;;;;;;;;5031693;28;20021;-80
2021/05/22 14:33:46;;;;;;;9.85;1.73;;;;;;;;;;5051757;28;20549;-80